Terminal Aerodrome Forecast
Issued by NWS Jacksonville, FL

Current Version | Previous Version | Text Only | Print | Product List | Glossary On
Versions: 1 2 3 4 5 6 7 8 9 10 11 12 13 14 15 16 17 18 19 20 21 22 23 24 25 26
000
FTUS42 KJAX 290520
TAFGNV
TAF
KGNV 290520Z 2906/3006 06004KT P6SM SCT015 BKN100 OVC200
      TEMPO 2908/2912 5SM BR SCT002
     FM291500 06006KT P6SM VCSH SCT025 BKN100
     FM291800 09008KT P6SM VCTS SCT025CB BKN050
     FM300000 08004KT P6SM VCSH SCT025 BKN100 OVC200=

USA.gov is the U.S. government's official web portal to all federal, state and local government web resources and services.